Time;durP1;ratioP1;P1;durP2;ratioP2;P2;SDS_P1;SDS_P2;PMS_P1;PMS_P2;Temp;Humidity;BMP_temperature;BMP_pressure;BME280_temperature;BME280_humidity;BME280_pressure;Samples;Min_cycle;Max_cycle;Signal;HPM_P1;HPM_P2
2022/09/22 00:00:34;;;;;;;8.25;4.38;;;11.60;99.90;;;;;;5153646;27;20038;-73
2022/09/22 00:03:00;;;;;;;7.70;4.45;;;11.50;99.90;;;;;;5135239;27;20042;-74
2022/09/22 00:05:25;;;;;;;7.80;4.28;;;11.70;99.90;;;;;;5153775;27;20140;-74
2022/09/22 00:07:52;;;;;;;9.68;4.13;;;11.50;99.90;;;;;;5154223;27;20111;-74
2022/09/22 00:10:20;;;;;;;8.10;4.28;;;11.60;99.90;;;;;;5155380;27;20088;-74
2022/09/22 00:12:46;;;;;;;7.88;4.25;;;11.60;99.90;;;;;;5158205;27;20139;-73
2022/09/22 00:15:12;;;;;;;8.68;4.30;;;11.60;99.90;;;;;;5158026;27;20038;-74
2022/09/22 00:17:38;;;;;;;10.50;4.30;;;11.50;99.90;;;;;;5139309;27;20042;-73
2022/09/22 00:20:04;;;;;;;9.98;4.35;;;11.60;99.90;;;;;;5137403;27;20038;-74
2022/09/22 00:22:30;;;;;;;8.30;3.85;;;11.50;99.90;;;;;;5157316;27;20035;-73
2022/09/22 00:24:55;;;;;;;11.60;4.10;;;11.40;99.90;;;;;;5157841;27;20508;-74
2022/09/22 00:27:23;;;;;;;8.10;3.78;;;11.40;99.90;;;;;;5137843;27;20065;-75
2022/09/22 00:29:50;;;;;;;9.40;3.75;;;11.50;99.90;;;;;;5121863;27;20043;-74
2022/09/22 00:32:17;;;;;;;8.48;3.75;;;11.70;99.90;;;;;;5138323;27;20491;-74
2022/09/22 00:34:43;;;;;;;7.63;3.60;;;11.80;99.90;;;;;;5157461;27;20495;-74
2022/09/22 00:37:09;;;;;;;6.15;3.50;;;11.50;99.90;;;;;;5157578;27;20051;-74
2022/09/22 00:39:35;;;;;;;9.90;3.63;;;11.40;99.90;;;;;;5157960;27;20082;-75
2022/09/22 00:42:01;;;;;;;7.18;3.47;;;11.50;99.90;;;;;;5138657;27;20035;-74
2022/09/22 00:44:36;;;;;;;7.05;3.80;;;11.30;99.90;;;;;;5157566;27;20046;-73
2022/09/22 00:47:18;;;;;;;7.57;3.20;;;11.30;99.90;;;;;;5157373;27;20042;-74
2022/09/22 00:49:56;;;;;;;7.88;3.80;;;11.40;99.90;;;;;;5157095;27;20070;-74
2022/09/22 00:52:45;;;;;;;12.10;3.50;;;11.20;99.90;;;;;;5136461;27;20062;-74
2022/09/22 00:55:22;;;;;;;9.68;3.53;;;11.40;99.90;;;;;;5156352;27;20432;-74
2022/09/22 00:57:52;;;;;;;8.80;3.67;;;11.10;99.90;;;;;;5156350;27;20122;-74
2022/09/22 01:00:18;;;;;;;9.38;3.90;;;11.10;99.90;;;;;;5156971;27;20050;-74
2022/09/22 01:02:48;;;;;;;10.18;3.65;;;11.10;99.90;;;;;;5157082;27;20045;-74
2022/09/22 01:05:14;;;;;;;8.60;3.90;;;11.10;99.90;;;;;;5157210;27;20139;-74
2022/09/22 01:07:41;;;;;;;9.30;3.63;;;11.10;99.90;;;;;;5157123;27;20047;-73
2022/09/22 01:10:10;;;;;;;6.45;3.45;;;11.20;99.90;;;;;;5156855;27;20078;-74
2022/09/22 01:12:37;;;;;;;8.32;3.95;;;11.00;99.90;;;;;;5125808;27;20365;-73
2022/09/22 01:15:02;;;;;;;8.93;4.25;;;11.80;99.90;;;;;;5153892;27;20043;-73
2022/09/22 01:18:12;;;;;;;9.60;3.88;;;11.00;99.90;;;;;;5137875;27;20042;-74
2022/09/22 01:20:46;;;;;;;7.63;3.97;;;11.00;99.90;;;;;;5072186;28;20544;-74
2022/09/22 01:23:20;;;;;;;8.38;4.22;;;10.90;99.90;;;;;;5071201;28;20416;-74
2022/09/22 01:25:46;;;;;;;8.15;3.80;;;10.80;99.90;;;;;;5106413;27;20610;-74
2022/09/22 01:28:36;;;;;;;8.35;3.72;;;10.80;99.90;;;;;;5156404;27;20035;-73
2022/09/22 01:31:08;;;;;;;9.95;4.18;;;10.80;99.90;;;;;;5137655;27;20463;-74
2022/09/22 01:33:49;;;;;;;8.65;3.65;;;10.70;99.90;;;;;;5126234;27;20075;-74
2022/09/22 01:36:23;;;;;;;8.02;3.50;;;10.70;99.90;;;;;;5114002;28;20097;-75
2022/09/22 01:39:03;;;;;;;8.23;3.75;;;10.70;99.90;;;;;;5115397;28;20134;-74
2022/09/22 01:41:42;;;;;;;10.05;4.00;;;10.70;99.90;;;;;;5111151;28;20047;-74
2022/09/22 01:44:15;;;;;;;11.95;4.18;;;10.70;99.90;;;;;;5110978;28;20479;-73
2022/09/22 01:46:52;;;;;;;7.70;3.83;;;10.70;99.90;;;;;;5112026;28;20076;-74
2022/09/22 01:49:20;;;;;;;7.75;4.05;;;11.40;99.90;;;;;;5115582;28;20451;-74
2022/09/22 01:51:50;;;;;;;9.40;3.88;;;10.90;99.90;;;;;;5114943;28;20061;-73
2022/09/22 01:54:24;;;;;;;7.88;3.58;;;11.50;99.90;;;;;;5096768;28;20062;-74
2022/09/22 01:56:57;;;;;;;6.20;3.70;;;10.70;99.90;;;;;;5114581;28;20036;-74
2022/09/22 01:59:27;;;;;;;10.30;4.20;;;10.70;99.90;;;;;;5115072;28;20095;-73
2022/09/22 02:02:09;;;;;;;8.65;3.70;;;10.70;99.90;;;;;;5113000;28;20049;-74
2022/09/22 02:04:40;;;;;;;7.97;3.63;;;10.80;99.90;;;;;;5114567;28;20089;-74
2022/09/22 02:07:24;;;;;;;8.63;3.60;;;10.70;99.90;;;;;;5112963;28;20058;-73
2022/09/22 02:09:50;;;;;;;10.13;3.28;;;10.70;99.90;;;;;;5114885;28;20089;-74
2022/09/22 02:12:17;;;;;;;8.27;3.63;;;10.70;99.90;;;;;;5112664;28;20488;-75
2022/09/22 02:14:45;;;;;;;9.85;3.70;;;11.30;99.90;;;;;;5096586;28;20058;-74
2022/09/22 02:17:12;;;;;;;8.85;3.38;;;10.70;99.90;;;;;;5113350;28;20043;-74
2022/09/22 02:19:40;;;;;;;10.02;3.65;;;10.70;99.90;;;;;;5113399;28;20145;-74
2022/09/22 02:22:09;;;;;;;9.52;3.38;;;10.70;99.90;;;;;;5114118;28;20406;-74
2022/09/22 02:24:41;;;;;;;8.98;3.85;;;10.70;99.90;;;;;;5114347;28;20044;-73
2022/09/22 02:27:15;;;;;;;8.13;3.20;;;11.70;99.90;;;;;;5113833;28;20044;-74
2022/09/22 02:29:51;;;;;;;8.90;3.40;;;10.70;99.90;;;;;;5113021;28;20054;-74
2022/09/22 02:32:18;;;;;;;10.80;3.35;;;11.20;99.90;;;;;;5113246;28;20032;-74
2022/09/22 02:34:45;;;;;;;10.32;3.28;;;11.30;99.90;;;;;;5148904;27;20042;-74
2022/09/22 02:37:45;;;;;;;8.05;3.13;;;10.90;99.90;;;;;;5155447;27;20119;-74
2022/09/22 02:40:31;;;;;;;6.28;3.28;;;10.60;99.90;;;;;;5078388;27;20529;-74
2022/09/22 02:43:27;;;;;;;6.50;3.03;;;10.60;99.90;;;;;;5150172;27;20039;-74
2022/09/22 02:46:04;;;;;;;8.60;3.13;;;10.60;99.90;;;;;;5136276;27;20038;-74
2022/09/22 02:48:45;;;;;;;10.07;3.55;;;10.70;99.90;;;;;;5154929;27;20537;-74
2022/09/22 02:51:12;;;;;;;9.02;3.63;;;10.60;99.90;;;;;;5154901;27;20035;-74
2022/09/22 02:53:37;;;;;;;6.88;3.45;;;10.60;99.90;;;;;;5155302;27;20046;-74
2022/09/22 02:56:03;;;;;;;9.63;3.88;;;10.80;99.90;;;;;;5154480;27;20038;-74
2022/09/22 02:58:29;;;;;;;8.98;3.72;;;10.50;99.90;;;;;;5154692;27;20429;-74
2022/09/22 03:00:55;;;;;;;6.05;3.30;;;10.80;99.90;;;;;;5154560;27;20070;-74
2022/09/22 03:03:21;;;;;;;7.45;3.58;;;11.20;99.90;;;;;;5132606;27;20122;-73
2022/09/22 03:05:46;;;;;;;8.80;3.38;;;10.30;99.90;;;;;;5130942;27;20121;-74
2022/09/22 03:08:12;;;;;;;9.50;3.65;;;10.30;99.90;;;;;;5134047;27;20043;-74
2022/09/22 03:10:38;;;;;;;5.97;3.30;;;10.90;99.90;;;;;;5135114;27;20094;-74
2022/09/22 03:13:03;;;;;;;6.85;3.28;;;10.30;99.90;;;;;;5154270;27;20106;-74
2022/09/22 03:15:29;;;;;;;6.75;3.40;;;10.30;99.90;;;;;;5154123;27;20042;-74
2022/09/22 03:17:55;;;;;;;6.20;3.33;;;11.10;99.90;;;;;;5154752;27;20039;-74
2022/09/22 03:20:20;;;;;;;6.95;3.20;;;10.30;99.90;;;;;;5154311;27;20039;-74
2022/09/22 03:22:46;;;;;;;5.78;3.15;;;10.30;99.90;;;;;;5154378;27;20506;-74
2022/09/22 03:25:12;;;;;;;8.05;3.42;;;10.30;99.90;;;;;;5135784;27;20034;-74
2022/09/22 03:27:38;;;;;;;10.45;3.22;;;10.30;99.90;;;;;;5153905;27;20042;-74
2022/09/22 03:30:05;;;;;;;7.68;3.33;;;11.10;99.90;;;;;;5154435;27;20053;-74
2022/09/22 03:32:31;;;;;;;8.98;3.20;;;10.30;99.90;;;;;;5137213;27;20030;-74
2022/09/22 03:34:57;;;;;;;8.20;3.40;;;10.20;99.90;;;;;;5153630;27;20566;-73
2022/09/22 03:37:22;;;;;;;5.90;3.03;;;10.20;99.90;;;;;;5151249;27;20034;-75
2022/09/22 03:39:48;;;;;;;10.02;3.30;;;10.30;99.90;;;;;;5154432;27;20035;-74
2022/09/22 03:42:14;;;;;;;8.52;3.25;;;10.20;99.90;;;;;;5114400;27;20043;-74
2022/09/22 03:44:39;;;;;;;7.28;2.92;;;11.00;99.90;;;;;;5147969;27;20046;-74
2022/09/22 03:47:05;;;;;;;9.45;3.20;;;10.20;99.90;;;;;;5154050;27;20042;-74
2022/09/22 03:49:31;;;;;;;6.43;3.33;;;10.20;99.90;;;;;;5165670;27;20027;-74
2022/09/22 03:51:57;;;;;;;8.43;3.10;;;10.20;99.90;;;;;;5114646;28;20403;-74
2022/09/22 03:54:22;;;;;;;8.00;3.15;;;10.20;99.90;;;;;;5143383;27;20074;-74
2022/09/22 03:56:49;;;;;;;10.25;3.30;;;10.20;99.90;;;;;;5135013;27;20064;-74
2022/09/22 03:59:15;;;;;;;5.30;3.00;;;10.70;99.90;;;;;;5153445;27;20398;-73
2022/09/22 04:01:40;;;;;;;9.23;2.97;;;10.40;99.90;;;;;;5153620;27;20035;-74
2022/09/22 04:04:06;;;;;;;9.02;3.13;;;10.10;99.90;;;;;;5135368;27;20125;-74
2022/09/22 04:06:32;;;;;;;5.85;2.88;;;10.70;99.90;;;;;;5134725;27;20043;-74
2022/09/22 04:08:58;;;;;;;5.90;3.03;;;10.60;99.90;;;;;;5135387;27;20078;-74
2022/09/22 04:11:24;;;;;;;4.88;2.78;;;10.00;99.90;;;;;;5153592;27;20102;-74
2022/09/22 04:13:50;;;;;;;4.90;2.72;;;10.00;99.90;;;;;;5154149;27;20039;-74
2022/09/22 04:16:16;;;;;;;10.77;3.20;;;10.90;99.90;;;;;;5135096;27;20039;-73
2022/09/22 04:18:42;;;;;;;6.78;2.90;;;10.00;99.90;;;;;;5153800;27;20475;-74
2022/09/22 04:21:08;;;;;;;5.65;3.00;;;10.10;99.90;;;;;;5153435;27;20035;-74
2022/09/22 04:23:34;;;;;;;7.85;3.08;;;10.00;99.90;;;;;;5153929;27;20099;-74
2022/09/22 04:26:00;;;;;;;7.13;2.90;;;9.90;99.90;;;;;;5153761;27;20090;-74
2022/09/22 04:28:27;;;;;;;7.53;2.88;;;10.60;99.90;;;;;;5135032;27;20398;-74
2022/09/22 04:30:52;;;;;;;9.45;3.08;;;10.50;99.90;;;;;;5142058;27;20479;-74
2022/09/22 04:33:18;;;;;;;11.07;3.00;;;10.00;99.90;;;;;;5146778;27;20050;-74
2022/09/22 04:35:44;;;;;;;8.20;3.30;;;10.10;99.90;;;;;;5153062;27;20053;-74
2022/09/22 04:38:09;;;;;;;6.95;2.90;;;10.70;99.90;;;;;;5152198;27;20057;-74
2022/09/22 04:40:36;;;;;;;9.30;3.20;;;10.90;99.90;;;;;;5153163;27;20053;-75
2022/09/22 04:43:02;;;;;;;5.75;2.85;;;10.00;99.90;;;;;;5153420;27;20053;-75
2022/09/22 04:45:28;;;;;;;10.20;3.13;;;10.50;99.90;;;;;;5153084;27;20063;-75
2022/09/22 04:47:54;;;;;;;6.88;3.10;;;9.80;99.90;;;;;;5153323;27;20051;-75
2022/09/22 04:50:21;;;;;;;9.98;3.20;;;9.70;99.90;;;;;;5150878;27;20059;-75
2022/09/22 04:52:51;;;;;;;8.75;3.30;;;9.70;99.90;;;;;;5132041;28;20361;-74
2022/09/22 04:55:19;;;;;;;7.93;3.53;;;9.70;99.90;;;;;;5152342;27;20091;-75
2022/09/22 04:57:49;;;;;;;9.13;3.20;;;9.70;99.90;;;;;;5157368;27;20034;-75
2022/09/22 05:00:16;;;;;;;7.28;3.55;;;10.00;99.90;;;;;;5138309;27;20103;-75
2022/09/22 05:02:42;;;;;;;8.75;3.38;;;9.80;99.90;;;;;;5155630;27;20039;-75
2022/09/22 05:05:08;;;;;;;14.38;4.00;;;9.70;99.90;;;;;;5148986;27;20050;-75
2022/09/22 05:07:34;;;;;;;8.85;3.33;;;9.80;99.90;;;;;;5155999;27;20073;-75
2022/09/22 05:09:59;;;;;;;9.85;3.80;;;10.00;99.90;;;;;;5119374;27;20035;-75
2022/09/22 05:12:26;;;;;;;9.18;3.60;;;10.60;99.90;;;;;;5154091;27;20073;-75
2022/09/22 05:14:52;;;;;;;7.03;3.40;;;10.60;99.90;;;;;;5156814;27;20031;-75
2022/09/22 05:17:18;;;;;;;6.97;3.42;;;9.80;99.90;;;;;;5156598;27;20054;-75
2022/09/22 05:19:45;;;;;;;9.77;3.58;;;9.70;99.90;;;;;;5156740;27;20047;-75
2022/09/22 05:22:11;;;;;;;9.82;3.53;;;9.70;99.90;;;;;;5118264;27;20046;-75
2022/09/22 05:24:37;;;;;;;10.25;4.05;;;9.70;99.90;;;;;;5146630;27;20072;-75
2022/09/22 05:27:04;;;;;;;11.10;3.92;;;9.70;99.90;;;;;;5156308;27;20058;-75
2022/09/22 05:29:29;;;;;;;9.70;3.63;;;9.70;99.90;;;;;;5156596;27;20398;-75
2022/09/22 05:31:55;;;;;;;9.52;4.18;;;10.30;99.90;;;;;;5155996;27;20043;-74
2022/09/22 05:34:20;;;;;;;7.70;3.78;;;9.60;99.90;;;;;;5156422;27;20099;-75
2022/09/22 05:36:46;;;;;;;10.60;4.20;;;9.60;99.90;;;;;;5153215;27;20047;-75
2022/09/22 05:39:12;;;;;;;13.73;4.43;;;9.60;99.90;;;;;;5155059;27;20047;-75
2022/09/22 05:41:41;;;;;;;8.90;4.30;;;9.70;99.90;;;;;;5155849;27;20039;-75
2022/09/22 05:44:06;;;;;;;10.63;4.85;;;9.70;99.90;;;;;;5155850;27;20091;-74
2022/09/22 05:46:32;;;;;;;10.77;4.90;;;9.70;99.90;;;;;;5155701;27;20038;-75
2022/09/22 05:48:58;;;;;;;11.30;4.90;;;9.70;99.90;;;;;;5136924;27;20052;-75
2022/09/22 05:51:23;;;;;;;16.15;5.40;;;9.70;99.90;;;;;;5120483;27;20043;-75
2022/09/22 05:53:49;;;;;;;12.50;5.32;;;10.30;99.90;;;;;;5156481;27;20049;-76
2022/09/22 05:56:14;;;;;;;11.77;5.30;;;9.70;99.90;;;;;;5155969;27;20529;-77
2022/09/22 05:58:40;;;;;;;13.15;4.82;;;9.90;99.90;;;;;;5156185;27;20095;-74
2022/09/22 06:01:05;;;;;;;14.35;4.60;;;9.80;99.90;;;;;;5136885;27;20403;-75
2022/09/22 06:03:31;;;;;;;11.13;4.90;;;9.80;99.90;;;;;;5155443;27;20050;-76
2022/09/22 06:05:57;;;;;;;10.98;4.75;;;9.80;99.90;;;;;;5136770;27;20042;-76
2022/09/22 06:08:22;;;;;;;10.32;4.80;;;10.20;99.90;;;;;;5154952;27;20058;-76
2022/09/22 06:10:50;;;;;;;10.18;5.00;;;9.80;99.90;;;;;;5155588;27;20078;-76
2022/09/22 06:13:16;;;;;;;12.27;4.82;;;9.90;99.90;;;;;;5154529;27;20047;-74
2022/09/22 06:15:47;;;;;;;14.05;5.07;;;10.00;99.90;;;;;;5119167;27;20054;-75
2022/09/22 06:18:14;;;;;;;8.32;5.18;;;9.90;99.90;;;;;;5153253;27;20135;-75
2022/09/22 06:20:41;;;;;;;12.50;5.78;;;9.90;99.90;;;;;;5155120;27;20462;-75
2022/09/22 06:23:07;;;;;;;11.98;5.20;;;10.70;99.90;;;;;;5155444;27;20086;-75
2022/09/22 06:25:36;;;;;;;17.67;6.25;;;10.20;99.90;;;;;;5152775;27;20041;-75
2022/09/22 06:28:05;;;;;;;11.68;5.50;;;9.90;99.90;;;;;;5149121;27;20121;-75
2022/09/22 06:30:35;;;;;;;14.80;5.47;;;10.00;99.90;;;;;;5154174;27;20033;-75
2022/09/22 06:33:01;;;;;;;16.23;5.82;;;9.90;99.90;;;;;;5136189;27;20043;-75
2022/09/22 06:35:34;;;;;;;14.23;5.68;;;10.10;99.90;;;;;;5136509;27;20050;-76
2022/09/22 06:37:59;;;;;;;14.18;5.30;;;10.20;99.90;;;;;;5155364;27;20043;-75
2022/09/22 06:40:26;;;;;;;12.48;5.50;;;11.20;99.90;;;;;;5154655;27;20053;-76
2022/09/22 06:42:56;;;;;;;12.77;5.20;;;10.80;99.90;;;;;;5136472;27;20425;-75
2022/09/22 06:45:25;;;;;;;10.55;5.22;;;12.40;99.90;;;;;;5136577;27;20456;-75
2022/09/22 06:47:51;;;;;;;10.40;4.55;;;14.00;99.90;;;;;;5155231;27;20461;-75
2022/09/22 06:50:17;;;;;;;10.77;5.00;;;15.70;99.90;;;;;;5153359;27;20085;-75
2022/09/22 06:52:43;;;;;;;12.07;5.10;;;17.10;99.90;;;;;;5152080;27;20051;-75
2022/09/22 06:55:09;;;;;;;8.43;4.32;;;18.30;99.90;;;;;;5136224;27;20518;-76
2022/09/22 06:57:35;;;;;;;8.50;4.20;;;19.30;99.90;;;;;;5154617;27;20410;-76
2022/09/22 07:00:02;;;;;;;11.02;4.25;;;20.50;99.90;;;;;;5135523;27;20042;-76
2022/09/22 07:02:29;;;;;;;8.57;4.53;;;21.50;99.90;;;;;;5153107;27;20123;-69
2022/09/22 07:04:57;;;;;;;8.75;3.60;;;22.40;99.20;;;;;;5148619;27;20894;-70
2022/09/22 07:07:28;;;;;;;8.93;4.20;;;21.90;98.40;;;;;;5142452;27;20038;-71
2022/09/22 07:09:54;;;;;;;9.68;5.13;;;21.40;98.50;;;;;;5145019;27;20099;-71
2022/09/22 07:12:21;;;;;;;10.52;3.80;;;22.50;97.90;;;;;;5148991;27;20463;-70
2022/09/22 07:14:52;;;;;;;10.48;4.07;;;22.70;97.70;;;;;;5162271;27;20092;-70
2022/09/22 07:17:19;;;;;;;10.18;3.47;;;23.50;95.90;;;;;;5133123;27;20055;-70
2022/09/22 07:19:49;;;;;;;10.70;3.78;;;24.30;95.30;;;;;;5148410;27;20126;-70
2022/09/22 07:22:18;;;;;;;10.95;3.65;;;24.90;94.10;;;;;;5145045;27;20047;-69
2022/09/22 07:24:44;;;;;;;9.27;3.75;;;25.60;93.50;;;;;;5145418;27;20038;-69
2022/09/22 07:27:13;;;;;;;12.10;3.75;;;26.10;92.30;;;;;;5174590;27;20045;-72
2022/09/22 07:29:38;;;;;;;8.02;4.05;;;26.80;91.90;;;;;;5159131;27;20035;-78
2022/09/22 07:32:04;;;;;;;6.80;4.03;;;27.30;91.80;;;;;;5137888;27;20038;-69
2022/09/22 07:34:31;;;;;;;7.03;3.45;;;27.80;90.70;;;;;;5135129;27;20382;-69
2022/09/22 07:36:58;;;;;;;8.30;3.45;;;26.90;88.70;;;;;;5153071;27;20391;-69
2022/09/22 07:39:24;;;;;;;6.93;3.47;;;24.90;89.40;;;;;;5131822;27;20321;-69
2022/09/22 07:41:50;;;;;;;10.98;4.28;;;23.10;91.10;;;;;;5133437;27;20034;-69
2022/09/22 07:47:01;;;;;;;11.27;4.00;;;20.20;93.80;;;;;;5153458;27;20038;-68
2022/09/22 07:49:27;;;;;;;11.18;3.78;;;19.20;95.10;;;;;;5134233;27;20071;-69
2022/09/22 07:51:53;;;;;;;8.73;3.78;;;18.50;96.30;;;;;;5148125;27;20043;-68
2022/09/22 07:54:20;;;;;;;12.77;3.90;;;17.90;97.50;;;;;;5136882;27;20035;-68
2022/09/22 07:56:46;;;;;;;8.18;3.95;;;17.60;98.20;;;;;;5166902;27;20074;-68
2022/09/22 07:59:14;;;;;;;7.30;4.32;;;17.10;98.90;;;;;;5136638;27;20135;-69
2022/09/22 08:01:42;;;;;;;7.25;3.80;;;17.00;99.90;;;;;;5132329;28;20071;-69
2022/09/22 08:04:21;;;;;;;6.63;3.90;;;16.70;99.90;;;;;;5137846;27;20030;-70
2022/09/22 08:06:54;;;;;;;9.20;4.00;;;16.60;99.90;;;;;;5133390;27;20383;-70
2022/09/22 08:09:20;;;;;;;10.05;4.47;;;16.50;99.90;;;;;;5152671;27;20043;-69
2022/09/22 08:11:47;;;;;;;8.77;4.35;;;16.40;99.90;;;;;;5151482;27;20079;-69
2022/09/22 08:14:16;;;;;;;7.38;4.25;;;16.40;99.90;;;;;;5128328;27;20054;-70
2022/09/22 08:16:42;;;;;;;8.00;4.05;;;16.40;99.90;;;;;;5122084;27;20114;-69
2022/09/22 08:19:11;;;;;;;10.88;3.95;;;16.40;99.90;;;;;;5152931;27;20046;-68
2022/09/22 08:21:49;;;;;;;9.35;3.78;;;16.40;99.90;;;;;;5141371;27;20084;-69
2022/09/22 08:24:20;;;;;;;7.47;4.15;;;16.70;99.90;;;;;;5147828;27;20060;-68
2022/09/22 08:26:51;;;;;;;8.95;4.10;;;16.50;99.90;;;;;;5154237;27;20399;-69
2022/09/22 08:29:17;;;;;;;9.32;4.13;;;16.60;99.90;;;;;;5167649;27;20118;-69
2022/09/22 08:31:45;;;;;;;10.88;4.22;;;16.80;99.90;;;;;;5135203;27;20510;-69
2022/09/22 08:34:13;;;;;;;9.60;4.50;;;16.90;99.90;;;;;;5138927;27;20050;-69
2022/09/22 08:36:39;;;;;;;8.32;3.63;;;17.10;99.90;;;;;;5121354;27;20047;-69
2022/09/22 08:39:04;;;;;;;10.10;3.50;;;17.20;99.90;;;;;;5157186;27;20465;-69
2022/09/22 08:41:37;;;;;;;6.72;3.05;;;17.40;99.90;;;;;;5140150;27;20114;-71
2022/09/22 08:44:05;;;;;;;8.45;3.10;;;17.60;99.90;;;;;;5138075;27;20051;-70
2022/09/22 08:46:37;;;;;;;9.55;3.35;;;17.80;99.90;;;;;;5135406;27;20035;-69
2022/09/22 08:52:03;;;;;;;4.60;2.75;;;18.20;99.90;;;;;;5155588;27;20050;-69
2022/09/22 08:54:30;;;;;;;7.53;2.70;;;18.40;99.90;;;;;;5119285;27;20062;-69
2022/09/22 08:57:18;;;;;;;9.35;3.00;;;18.50;99.90;;;;;;5141401;27;20096;-69
2022/09/22 09:00:05;;;;;;;9.43;3.40;;;18.60;99.90;;;;;;5140563;27;20181;-69
2022/09/22 09:03:01;;;;;;;8.27;2.97;;;18.80;99.90;;;;;;5153806;27;20471;-69
2022/09/22 09:05:46;;;;;;;9.32;3.22;;;19.10;99.50;;;;;;5145097;27;20053;-69
2022/09/22 09:08:33;;;;;;;6.75;2.80;;;19.30;99.40;;;;;;5135823;27;20046;-70
2022/09/22 09:11:20;;;;;;;8.32;2.90;;;19.40;99.10;;;;;;5118810;27;20128;-70
2022/09/22 09:14:23;;;;;;;16.55;3.15;;;19.60;99.20;;;;;;5154732;27;20070;-70
2022/09/22 09:17:00;;;;;;;6.65;2.58;;;19.90;98.80;;;;;;5154259;27;20443;-70
2022/09/22 09:19:41;;;;;;;10.85;2.35;;;20.10;98.20;;;;;;5156742;27;20095;-70
2022/09/22 09:22:17;;;;;;;4.85;2.08;;;20.30;96.90;;;;;;5174992;27;20053;-70
2022/09/22 09:24:48;;;;;;;5.63;2.10;;;20.50;96.70;;;;;;5156482;27;20054;-70
2022/09/22 09:27:19;;;;;;;6.22;2.47;;;20.60;96.20;;;;;;5144657;27;20050;-70
2022/09/22 09:29:53;;;;;;;6.70;2.50;;;20.80;95.80;;;;;;5149181;27;20039;-70
2022/09/22 09:32:33;;;;;;;7.03;2.20;;;21.00;95.80;;;;;;5156137;27;20429;-70
2022/09/22 09:35:00;;;;;;;6.80;2.40;;;21.10;95.40;;;;;;5120481;27;20527;-70
2022/09/22 09:37:27;;;;;;;6.38;2.10;;;21.20;95.00;;;;;;5146591;27;20096;-70
2022/09/22 09:39:53;;;;;;;6.10;2.20;;;21.30;94.80;;;;;;5161344;27;20402;-70
2022/09/22 09:42:27;;;;;;;4.93;2.20;;;21.50;94.10;;;;;;5161254;27;20038;-70
2022/09/22 09:44:54;;;;;;;5.22;1.90;;;21.60;93.60;;;;;;5136718;27;20092;-69
2022/09/22 09:47:50;;;;;;;4.57;2.20;;;21.80;93.50;;;;;;5137126;27;20050;-69
2022/09/22 09:50:16;;;;;;;;;;;22.00;93.30;;;;;;5117455;27;20054;-69
2022/09/22 09:52:41;;;;;;;5.00;2.20;;;22.10;93.20;;;;;;5152140;27;20029;-69
2022/09/22 09:55:25;;;;;;;7.00;2.30;;;22.20;93.40;;;;;;5137374;27;20092;-68
2022/09/22 09:58:01;;;;;;;5.75;2.40;;;22.40;93.40;;;;;;5137236;27;20054;-69
2022/09/22 10:00:30;;;;;;;4.85;2.40;;;22.60;92.90;;;;;;5155817;27;20107;-69
2022/09/22 10:03:04;;;;;;;5.32;2.60;;;22.80;92.40;;;;;;5143851;27;20074;-69
2022/09/22 10:05:32;;;;;;;7.82;2.58;;;22.90;92.40;;;;;;5117562;27;20065;-69
2022/09/22 10:07:57;;;;;;;5.80;2.22;;;23.00;91.80;;;;;;5142141;27;20038;-69
2022/09/22 10:10:31;;;;;;;5.45;2.50;;;23.00;91.80;;;;;;5136772;27;20057;-70
2022/09/22 10:13:03;;;;;;;6.85;2.40;;;23.20;91.80;;;;;;5135632;27;20035;-69
2022/09/22 10:15:33;;;;;;;5.10;2.30;;;23.20;91.40;;;;;;5121467;27;20086;-70
2022/09/22 10:18:00;;;;;;;7.10;2.53;;;23.20;91.00;;;;;;5127070;27;20516;-70
2022/09/22 10:20:31;;;;;;;7.90;2.67;;;23.20;90.80;;;;;;5138722;27;20046;-71
2022/09/22 10:23:21;;;;;;;5.90;2.60;;;23.10;90.30;;;;;;5148795;27;20043;-69
2022/09/22 10:25:49;;;;;;;6.38;2.60;;;22.70;90.50;;;;;;5110936;27;20285;-70
2022/09/22 10:28:20;;;;;;;7.75;2.60;;;22.60;90.60;;;;;;5130889;27;20382;-70
2022/09/22 10:31:16;;;;;;;6.53;2.50;;;22.70;90.50;;;;;;5156803;27;20038;-70
2022/09/22 10:33:56;;;;;;;7.63;2.72;;;22.90;90.40;;;;;;5162597;27;20080;-70
2022/09/22 10:36:24;;;;;;;6.68;2.97;;;23.00;89.90;;;;;;5136057;27;20053;-70
2022/09/22 10:38:52;;;;;;;5.30;2.40;;;22.90;90.00;;;;;;5160985;27;20062;-70
2022/09/22 10:41:24;;;;;;;5.15;2.60;;;22.90;90.00;;;;;;5154647;27;20046;-70
2022/09/22 10:44:17;;;;;;;4.65;2.30;;;23.20;89.80;;;;;;5153890;27;20054;-69
2022/09/22 10:47:24;;;;;;;6.10;2.47;;;23.50;90.00;;;;;;5135722;27;20043;-69
2022/09/22 10:49:56;;;;;;;9.35;2.67;;;23.70;88.10;;;;;;5068568;28;20102;-71
2022/09/22 10:52:40;;;;;;;6.57;2.20;;;23.90;88.70;;;;;;5125280;27;20453;-71
2022/09/22 10:55:19;;;;;;;7.95;2.08;;;24.00;88.40;;;;;;5133554;27;20407;-72
2022/09/22 10:58:03;;;;;;;6.18;2.38;;;24.00;87.60;;;;;;5151540;27;20470;-71
2022/09/22 11:00:34;;;;;;;6.00;2.22;;;23.70;86.30;;;;;;5154016;27;20045;-71
2022/09/22 11:03:24;;;;;;;5.03;2.25;;;23.60;87.70;;;;;;5143110;27;20455;-70
2022/09/22 11:12:22;;;;;;;6.65;2.30;;;23.70;87.00;;;;;;5132048;27;20047;-71
2022/09/22 11:14:59;;;;;;;4.22;1.90;;;23.60;85.40;;;;;;5133518;27;20041;-71
2022/09/22 11:17:59;;;;;;;5.55;2.25;;;23.10;85.60;;;;;;5150484;27;20042;-71
2022/09/22 11:20:45;;;;;;;6.57;2.15;;;23.00;86.20;;;;;;5153620;27;20061;-71
2022/09/22 11:23:26;;;;;;;5.78;2.00;;;23.20;86.70;;;;;;5118501;27;20405;-71
2022/09/22 11:26:12;;;;;;;4.93;2.20;;;23.60;86.70;;;;;;5149448;27;20113;-71
2022/09/22 11:28:54;;;;;;;6.57;2.60;;;23.80;85.90;;;;;;5156374;27;20494;-71
2022/09/22 11:31:57;;;;;;;6.97;1.83;;;23.90;84.50;;;;;;5135917;27;20126;-70
2022/09/22 11:34:45;;;;;;;8.25;2.03;;;23.70;84.90;;;;;;5114583;27;20138;-70
2022/09/22 11:37:32;;;;;;;5.65;2.10;;;23.90;83.80;;;;;;5132808;27;20051;-71
2022/09/22 11:40:03;;;;;;;6.53;2.40;;;24.00;82.90;;;;;;5137534;27;20046;-71
2022/09/22 11:42:37;;;;;;;7.50;2.92;;;24.00;83.00;;;;;;5153505;27;20061;-69
2022/09/22 11:45:39;;;;;;;8.75;2.63;;;23.90;83.10;;;;;;5135457;27;20133;-69
2022/09/22 11:48:34;;;;;;;7.85;2.75;;;23.40;83.80;;;;;;5133341;27;20542;-70
2022/09/22 11:51:23;;;;;;;5.57;2.70;;;23.00;84.30;;;;;;5062544;27;20075;-70
2022/09/22 11:54:07;;;;;;;5.05;2.70;;;22.90;85.00;;;;;;5137491;27;20122;-69
2022/09/22 11:56:42;;;;;;;5.38;2.78;;;22.80;84.20;;;;;;5132998;28;20062;-69
2022/09/22 11:59:36;;;;;;;5.70;3.03;;;22.60;84.90;;;;;;5115710;27;20136;-69
2022/09/22 12:02:14;;;;;;;6.65;3.30;;;22.80;85.10;;;;;;5132802;28;20096;-69
2022/09/22 12:04:47;;;;;;;6.40;3.58;;;22.90;84.00;;;;;;5133351;27;20051;-70
2022/09/22 12:07:28;;;;;;;6.35;2.70;;;22.50;83.90;;;;;;5132557;28;20121;-70
2022/09/22 12:10:11;;;;;;;6.55;2.42;;;22.20;85.20;;;;;;5153860;27;20043;-69
2022/09/22 12:12:38;;;;;;;9.57;2.88;;;22.10;86.10;;;;;;5151203;27;20115;-69
2022/09/22 12:15:17;;;;;;;9.27;3.10;;;22.10;86.10;;;;;;5167535;27;20050;-69
2022/09/22 12:17:53;;;;;;;6.38;3.08;;;22.30;85.90;;;;;;5132255;27;20126;-68
2022/09/22 12:20:45;;;;;;;7.32;3.15;;;22.20;86.10;;;;;;5153416;27;20050;-69
2022/09/22 12:23:19;;;;;;;6.50;3.20;;;22.00;86.70;;;;;;5128133;27;20046;-69
2022/09/22 12:25:53;;;;;;;7.85;3.28;;;21.90;86.70;;;;;;5116736;27;20049;-69
2022/09/22 12:28:27;;;;;;;5.32;3.25;;;21.80;86.90;;;;;;5152864;27;20096;-69
2022/09/22 12:30:58;;;;;;;7.18;3.53;;;21.60;87.00;;;;;;5141193;27;20047;-70
2022/09/22 12:33:26;;;;;;;8.82;3.72;;;21.60;87.40;;;;;;5114520;28;20144;-70
2022/09/22 12:35:54;;;;;;;6.90;3.28;;;21.70;87.60;;;;;;5132403;28;20524;-70
2022/09/22 12:38:21;;;;;;;8.32;3.30;;;21.90;86.50;;;;;;5132786;28;20078;-70
2022/09/22 12:40:53;;;;;;;6.18;3.50;;;22.00;86.30;;;;;;5130992;28;20438;-69
2022/09/22 12:43:22;;;;;;;5.97;3.38;;;22.00;86.80;;;;;;5130586;28;20438;-69
2022/09/22 12:45:50;;;;;;;7.80;3.42;;;22.00;86.60;;;;;;5113004;28;20597;-70
2022/09/22 12:48:23;;;;;;;8.90;3.30;;;22.00;86.20;;;;;;5133322;28;20088;-70
2022/09/22 12:50:51;;;;;;;7.10;3.40;;;22.00;86.30;;;;;;5097039;28;20386;-71
2022/09/22 12:53:26;;;;;;;6.55;3.50;;;21.80;86.90;;;;;;5132532;28;20487;-70
2022/09/22 12:55:56;;;;;;;9.48;3.85;;;21.70;86.70;;;;;;5132012;28;20054;-69
2022/09/22 12:58:22;;;;;;;5.82;3.00;;;21.60;86.90;;;;;;5132494;28;20043;-68
2022/09/22 13:01:30;;;;;;;7.38;3.45;;;21.40;88.20;;;;;;5131960;28;20490;-69
2022/09/22 13:04:09;;;;;;;5.32;3.38;;;21.40;88.40;;;;;;5130273;28;20376;-69
2022/09/22 13:06:38;;;;;;;8.85;3.88;;;21.50;88.20;;;;;;5148003;27;20051;-69
2022/09/22 13:09:04;;;;;;;7.03;3.05;;;21.50;88.30;;;;;;5132213;27;20086;-70
2022/09/22 13:12:18;;;;;;;7.93;3.70;;;21.60;87.20;;;;;;5131899;28;20047;-69
2022/09/22 13:14:56;;;;;;;6.80;3.40;;;21.70;87.10;;;;;;5114420;28;20050;-71
2022/09/22 13:17:50;;;;;;;9.18;3.53;;;21.80;86.10;;;;;;5133891;27;20045;-69
2022/09/22 13:20:17;;;;;;;8.35;3.42;;;21.70;86.00;;;;;;5135722;27;20099;-69